Time;durP1;ratioP1;P1;durP2;ratioP2;P2;SDS_P1;SDS_P2;PMS_P1;PMS_P2;Temp;Humidity;BMP_temperature;BMP_pressure;BME280_temperature;BME280_humidity;BME280_pressure;Samples;Min_cycle;Max_cycle;Signal;HPM_P1;HPM_P2
2023/08/06 00:00:52;;;;;;;3.10;2.80;;;;;;;16.26;100.00;99609.06;5071539;28;20237;-75
2023/08/06 00:03:19;;;;;;;4.40;3.20;;;;;;;16.24;100.00;99602.22;5071347;28;20217;-75
2023/08/06 00:05:45;;;;;;;3.57;3.27;;;;;;;16.28;100.00;99601.09;5071741;28;20214;-75
2023/08/06 00:08:11;;;;;;;4.20;3.80;;;;;;;16.25;100.00;99583.69;5071503;28;20217;-75
2023/08/06 00:10:40;;;;;;;4.53;3.27;;;;;;;16.26;100.00;99580.09;5071598;28;20602;-75
2023/08/06 00:13:06;;;;;;;3.70;3.40;;;;;;;16.26;100.00;99574.00;5071555;28;20216;-75
2023/08/06 00:15:33;;;;;;;3.60;3.30;;;;;;;16.27;100.00;99573.03;5071429;28;20205;-75
2023/08/06 00:17:59;;;;;;;3.23;3.03;;;;;;;16.27;100.00;99566.03;5070727;28;20210;-75
2023/08/06 00:20:26;;;;;;;3.70;3.50;;;;;;;16.32;100.00;99568.38;5071225;28;20233;-75
2023/08/06 00:22:52;;;;;;;3.33;3.03;;;;;;;16.28;100.00;99570.34;5071633;28;20214;-75
2023/08/06 00:25:19;;;;;;;4.67;4.27;;;;;;;16.35;100.00;99576.13;5071514;28;20396;-75
2023/08/06 00:27:47;;;;;;;3.47;3.17;;;;;;;16.36;100.00;99585.69;5071202;28;20219;-75
2023/08/06 00:30:13;;;;;;;3.87;3.50;;;;;;;16.37;100.00;99587.41;5071311;28;20201;-75
2023/08/06 00:32:40;;;;;;;3.60;3.40;;;;;;;16.36;100.00;99577.81;5071000;28;20218;-75
2023/08/06 00:35:07;;;;;;;3.70;3.40;;;;;;;16.33;100.00;99580.59;5071334;28;20201;-75
2023/08/06 00:37:34;;;;;;;3.33;3.03;;;;;;;16.35;100.00;99570.84;5071350;28;20207;-75
2023/08/06 00:40:00;;;;;;;3.67;3.43;;;;;;;16.37;100.00;99573.38;5073305;28;20216;-75
2023/08/06 00:42:27;;;;;;;3.40;3.20;;;;;;;16.31;100.00;99579.00;5074832;28;20213;-74
2023/08/06 00:44:54;;;;;;;3.97;3.67;;;;;;;16.24;100.00;99570.59;5074762;28;20211;-75
2023/08/06 00:47:21;;;;;;;4.57;3.73;;;;;;;16.19;100.00;99549.78;5074787;28;20210;-75
2023/08/06 00:49:48;;;;;;;3.93;3.70;;;;;;;16.15;100.00;99526.34;5074763;28;20223;-75
2023/08/06 00:52:14;;;;;;;4.40;4.03;;;;;;;16.12;100.00;99522.13;5074826;28;20231;-75
2023/08/06 00:54:41;;;;;;;4.17;3.87;;;;;;;16.15;100.00;99521.94;5074761;28;20237;-75
2023/08/06 00:57:09;;;;;;;5.23;3.90;;;;;;;16.19;100.00;99522.59;5074282;28;20216;-75
2023/08/06 00:59:35;;;;;;;7.73;3.53;;;;;;;16.19;100.00;99528.72;5074780;28;20250;-75
2023/08/06 01:02:03;;;;;;;3.60;3.30;;;;;;;16.20;100.00;99533.06;5074820;28;20236;-75
2023/08/06 01:04:30;;;;;;;3.63;3.33;;;;;;;16.22;100.00;99540.88;5074712;28;20227;-75
2023/08/06 01:07:07;;;;;;;3.47;3.17;;;;;;;16.21;100.00;99542.66;5074184;28;20693;-75
2023/08/06 01:09:45;;;;;;;3.77;3.47;;;;;;;16.18;100.00;99523.56;5074453;28;20213;-75
2023/08/06 01:12:24;;;;;;;4.87;4.40;;;;;;;16.20;100.00;99508.53;5073942;28;20706;-75
2023/08/06 01:14:58;;;;;;;3.73;3.43;;;;;;;16.19;100.00;99517.34;5074460;28;20207;-75
2023/08/06 01:17:27;;;;;;;4.10;3.80;;;;;;;16.15;100.00;99514.03;5074262;28;20201;-75
2023/08/06 01:19:54;;;;;;;3.60;3.40;;;;;;;16.16;100.00;99512.25;5074467;28;20216;-75
2023/08/06 01:22:22;;;;;;;3.77;3.47;;;;;;;16.19;100.00;99522.59;5073922;28;20699;-75
2023/08/06 01:24:50;;;;;;;3.67;3.47;;;;;;;16.08;100.00;99502.16;5073942;28;20212;-75
2023/08/06 01:27:25;;;;;;;3.73;3.43;;;;;;;16.09;100.00;99495.94;5074499;28;20212;-75
2023/08/06 01:30:00;;;;;;;9.40;4.30;;;;;;;16.11;100.00;99483.53;5074166;28;20676;-75
2023/08/06 01:32:27;;;;;;;3.87;3.57;;;;;;;16.12;100.00;99490.53;5074065;28;20211;-76
2023/08/06 01:34:55;;;;;;;5.60;3.77;;;;;;;16.11;100.00;99488.81;5073819;28;20706;-75
2023/08/06 01:37:23;;;;;;;3.57;3.37;;;;;;;16.06;100.00;99483.81;5073698;28;20231;-75
2023/08/06 01:39:50;;;;;;;3.47;3.17;;;;;;;16.07;100.00;99482.91;5073681;28;20676;-75
2023/08/06 01:42:16;;;;;;;4.13;3.80;;;;;;;16.05;100.00;99478.63;5073749;28;20614;-75
2023/08/06 01:44:43;;;;;;;3.63;3.10;;;;;;;16.08;100.00;99468.78;5073770;28;20206;-75
2023/08/06 01:47:09;;;;;;;3.47;3.23;;;;;;;16.13;100.00;99476.41;5073790;28;20217;-75
2023/08/06 01:49:36;;;;;;;7.80;2.57;;;;;;;16.14;100.00;99485.19;5073621;28;20212;-75
2023/08/06 01:52:02;;;;;;;2.97;2.77;;;;;;;16.09;100.00;99482.78;5072564;28;20248;-75
2023/08/06 01:54:30;;;;;;;3.73;3.43;;;;;;;16.04;100.00;99495.38;5073833;28;20216;-75
2023/08/06 01:56:58;;;;;;;3.13;2.93;;;;;;;16.04;100.00;99496.22;5073229;28;20674;-76
2023/08/06 01:59:24;;;;;;;2.87;2.70;;;;;;;16.03;100.00;99491.88;5073682;28;20205;-74
2023/08/06 02:01:51;;;;;;;3.50;3.30;;;;;;;16.02;100.00;99492.81;5073134;28;20718;-75
2023/08/06 02:04:17;;;;;;;4.23;3.30;;;;;;;16.00;100.00;99492.06;5073251;28;20204;-74
2023/08/06 02:06:44;;;;;;;3.17;2.97;;;;;;;16.01;100.00;99485.00;5073310;28;20208;-75
2023/08/06 02:09:10;;;;;;;3.13;2.93;;;;;;;15.98;100.00;99495.72;5073365;28;20204;-76
2023/08/06 02:11:38;;;;;;;4.20;3.10;;;;;;;15.94;100.00;99492.41;5073304;28;20706;-75
2023/08/06 02:14:04;;;;;;;3.10;2.90;;;;;;;15.93;100.00;99501.22;5073083;28;20551;-75
2023/08/06 02:16:31;;;;;;;3.30;3.00;;;;;;;15.90;100.00;99506.69;5073247;28;20227;-75
2023/08/06 02:18:57;;;;;;;3.00;2.73;;;;;;;15.86;100.00;99503.38;5072759;28;20216;-75
2023/08/06 02:21:24;;;;;;;2.93;2.37;;;;;;;15.86;100.00;99506.00;5072433;28;20245;-75
2023/08/06 02:23:50;;;;;;;3.03;2.77;;;;;;;15.88;100.00;99493.59;5073195;28;20214;-75
2023/08/06 02:26:16;;;;;;;3.00;2.70;;;;;;;15.84;100.00;99484.19;5072800;28;20224;-75
2023/08/06 02:28:44;;;;;;;3.00;2.80;;;;;;;15.85;100.00;99480.59;5072782;28;20216;-75
2023/08/06 02:31:11;;;;;;;3.03;2.40;;;;;;;15.88;100.00;99482.25;5072611;28;20594;-75
2023/08/06 02:33:37;;;;;;;2.30;2.13;;;;;;;15.89;100.00;99481.28;5073163;28;20504;-75
2023/08/06 02:36:04;;;;;;;3.83;2.23;;;;;;;15.90;100.00;99477.72;5072662;28;20207;-74
2023/08/06 02:38:31;;;;;;;2.10;2.00;;;;;;;15.88;100.00;99474.34;5072760;28;20200;-75
2023/08/06 02:40:58;;;;;;;2.33;2.13;;;;;;;15.87;100.00;99455.03;5072716;28;20237;-75
2023/08/06 02:43:24;;;;;;;2.53;2.37;;;;;;;15.86;100.00;99458.63;5072845;28;20212;-75
2023/08/06 02:45:52;;;;;;;2.77;2.57;;;;;;;15.86;100.00;99440.22;5072676;28;20211;-74
2023/08/06 02:48:19;;;;;;;2.73;2.43;;;;;;;15.87;100.00;99435.78;5072067;28;20212;-75
2023/08/06 02:50:45;;;;;;;2.60;2.40;;;;;;;15.86;100.00;99419.16;5072466;28;20243;-76
2023/08/06 02:53:11;;;;;;;2.57;2.37;;;;;;;15.86;100.00;99411.25;5072560;28;20207;-75
2023/08/06 02:55:38;;;;;;;3.00;2.80;;;;;;;15.88;100.00;99413.81;5072619;28;20212;-75
2023/08/06 02:58:05;;;;;;;2.90;2.70;;;;;;;15.86;100.00;99413.88;5072339;28;20200;-75
2023/08/06 03:00:31;;;;;;;3.60;3.20;;;;;;;15.88;100.00;99413.81;5071994;28;20739;-75
2023/08/06 03:02:59;;;;;;;3.60;3.30;;;;;;;15.89;100.00;99418.13;5072097;28;20226;-75
2023/08/06 03:05:25;;;;;;;3.10;2.90;;;;;;;15.85;100.00;99411.34;5072340;28;20206;-75
2023/08/06 03:07:52;;;;;;;3.67;3.47;;;;;;;15.85;100.00;99406.06;5072254;28;20208;-75
2023/08/06 03:10:19;;;;;;;4.00;3.70;;;;;;;15.87;100.00;99398.94;5071810;28;20224;-75
2023/08/06 03:12:46;;;;;;;4.60;4.10;;;;;;;15.86;100.00;99394.63;5071990;28;20201;-75
2023/08/06 03:15:12;;;;;;;5.00;3.63;;;;;;;15.86;100.00;99384.94;5071977;28;20200;-75
2023/08/06 03:17:39;;;;;;;3.47;3.17;;;;;;;15.86;100.00;99382.31;5071858;28;20714;-75
2023/08/06 03:20:08;;;;;;;3.83;3.43;;;;;;;15.88;100.00;99385.69;5072358;28;20230;-75
2023/08/06 03:22:35;;;;;;;7.13;4.50;;;;;;;15.88;100.00;99382.22;5071607;28;20229;-75
2023/08/06 03:25:01;;;;;;;3.37;3.03;;;;;;;15.86;100.00;99378.84;5071794;28;20585;-75
2023/08/06 03:27:28;;;;;;;4.13;3.83;;;;;;;15.87;100.00;99375.25;5071667;28;20571;-75
2023/08/06 03:29:54;;;;;;;5.40;3.67;;;;;;;15.82;100.00;99378.16;5071963;28;20215;-75
2023/08/06 03:32:21;;;;;;;4.57;4.17;;;;;;;15.84;100.00;99381.56;5071973;28;20229;-75
2023/08/06 03:34:47;;;;;;;4.40;4.07;;;;;;;15.87;100.00;99378.72;5071708;28;20212;-75
2023/08/06 03:37:15;;;;;;;3.80;3.50;;;;;;;15.92;100.00;99389.00;5071965;28;20290;-75
2023/08/06 03:39:41;;;;;;;4.47;3.80;;;;;;;15.91;100.00;99404.88;5072078;28;20205;-75
2023/08/06 03:42:08;;;;;;;4.33;3.50;;;;;;;15.87;100.00;99404.22;5071719;28;20228;-75
2023/08/06 03:44:34;;;;;;;4.50;4.20;;;;;;;15.81;100.00;99400.13;5071745;28;20201;-75
2023/08/06 03:47:01;;;;;;;4.30;3.90;;;;;;;15.81;100.00;99402.78;5071558;28;20201;-76
2023/08/06 03:49:27;;;;;;;4.07;3.43;;;;;;;15.77;100.00;99403.88;5071543;28;20212;-75
2023/08/06 03:51:54;;;;;;;4.40;3.47;;;;;;;15.74;100.00;99406.72;5071876;28;20266;-75
2023/08/06 03:54:21;;;;;;;3.63;3.33;;;;;;;15.72;100.00;99415.56;5071537;28;20218;-75
2023/08/06 03:56:48;;;;;;;3.73;3.43;;;;;;;15.72;100.00;99410.31;5071334;28;20678;-75
2023/08/06 03:59:14;;;;;;;5.73;3.20;;;;;;;15.70;100.00;99397.25;5071440;28;20693;-75
2023/08/06 04:01:41;;;;;;;3.43;3.13;;;;;;;15.67;100.00;99397.41;5071232;28;20702;-75
2023/08/06 04:04:07;;;;;;;3.00;2.80;;;;;;;15.64;100.00;99387.09;5071475;28;20557;-75
2023/08/06 04:06:34;;;;;;;3.33;2.73;;;;;;;15.61;100.00;99374.94;5071480;28;20218;-75
2023/08/06 04:09:00;;;;;;;2.87;2.57;;;;;;;15.61;100.00;99382.00;5071435;28;20212;-75
2023/08/06 04:11:28;;;;;;;3.53;3.23;;;;;;;15.59;100.00;99371.53;5071881;28;20224;-75
2023/08/06 04:13:55;;;;;;;2.73;2.53;;;;;;;15.59;100.00;99365.44;5071804;28;20212;-75
2023/08/06 04:16:21;;;;;;;2.77;2.57;;;;;;;15.55;100.00;99377.91;5075296;28;20230;-75
2023/08/06 04:18:49;;;;;;;3.10;2.80;;;;;;;15.56;100.00;99378.75;5075377;28;20209;-75
2023/08/06 04:21:15;;;;;;;3.27;2.50;;;;;;;15.55;100.00;99384.97;5074948;28;20225;-75
2023/08/06 04:23:42;;;;;;;3.63;2.40;;;;;;;15.59;100.00;99375.97;5075417;28;20212;-75
2023/08/06 04:26:08;;;;;;;4.23;2.93;;;;;;;15.54;100.00;99385.88;5075176;28;20207;-75
2023/08/06 04:28:36;;;;;;;2.83;2.63;;;;;;;15.56;100.00;99378.75;5075399;28;20200;-75
2023/08/06 04:31:02;;;;;;;4.40;2.63;;;;;;;15.55;100.00;99377.06;5075168;28;20228;-75
2023/08/06 04:33:29;;;;;;;3.50;2.60;;;;;;;15.54;100.00;99386.75;5075113;28;20200;-75
2023/08/06 04:35:56;;;;;;;2.70;2.50;;;;;;;15.58;100.00;99397.94;5074697;28;20694;-75
2023/08/06 04:38:24;;;;;;;2.83;2.57;;;;;;;15.56;100.00;99398.03;5074811;28;20213;-75
2023/08/06 04:40:50;;;;;;;2.73;2.53;;;;;;;15.56;100.00;99391.91;5075104;28;20236;-75
2023/08/06 04:43:17;;;;;;;2.87;2.67;;;;;;;15.55;100.00;99398.13;5074719;28;20714;-75
2023/08/06 04:45:48;;;;;;;3.30;3.00;;;;;;;15.56;100.00;99391.91;5074648;28;20205;-75
2023/08/06 04:48:14;;;;;;;2.60;2.43;;;;;;;15.57;100.00;99391.00;5074776;28;20208;-75
2023/08/06 04:50:44;;;;;;;3.03;2.77;;;;;;;15.55;100.00;99391.06;5074838;28;20240;-75
2023/08/06 04:53:10;;;;;;;3.60;2.60;;;;;;;15.53;100.00;99395.56;5074825;28;20216;-75
2023/08/06 04:55:37;;;;;;;4.53;2.80;;;;;;;15.52;100.00;99393.00;5074842;28;20219;-75
2023/08/06 04:58:04;;;;;;;2.93;2.63;;;;;;;15.53;100.00;99385.06;5074169;28;20673;-75
2023/08/06 05:00:30;;;;;;;2.93;2.73;;;;;;;15.51;100.00;99379.03;5074709;28;20725;-75
2023/08/06 05:03:00;;;;;;;3.70;3.37;;;;;;;15.54;100.00;99376.25;5074639;28;20233;-75
2023/08/06 05:05:26;;;;;;;3.53;3.23;;;;;;;15.53;100.00;99368.44;5074503;28;20201;-76
2023/08/06 05:07:56;;;;;;;4.07;3.77;;;;;;;15.61;100.00;99360.94;5074224;28;20231;-76
2023/08/06 05:10:25;;;;;;;3.30;2.90;;;;;;;15.62;100.00;99363.50;5074356;28;20256;-76
2023/08/06 05:12:52;;;;;;;3.53;3.30;;;;;;;15.67;100.00;99357.97;5074248;28;20674;-75
2023/08/06 05:15:19;;;;;;;3.20;3.00;;;;;;;15.67;100.00;99352.69;5074187;28;20205;-76
2023/08/06 05:17:45;;;;;;;4.33;3.83;;;;;;;15.66;100.00;99351.03;5074012;28;20211;-75
2023/08/06 05:20:13;;;;;;;3.80;3.50;;;;;;;15.68;100.00;99354.41;5074153;28;20201;-74
2023/08/06 05:22:40;;;;;;;4.00;3.67;;;;;;;15.71;100.00;99359.47;5074152;28;20626;-76
2023/08/06 05:25:07;;;;;;;3.00;2.80;;;;;;;15.72;100.00;99353.28;5073587;28;20233;-76
2023/08/06 05:27:33;;;;;;;3.60;3.30;;;;;;;15.73;100.00;99351.53;5073597;28;20212;-75
2023/08/06 05:30:00;;;;;;;3.13;2.83;;;;;;;15.73;100.00;99354.16;5074067;28;20213;-75
2023/08/06 05:32:26;;;;;;;3.43;3.13;;;;;;;15.74;100.00;99356.72;5074011;28;20212;-74
2023/08/06 05:34:53;;;;;;;2.87;2.67;;;;;;;15.75;100.00;99353.13;5073850;28;20207;-75
2023/08/06 05:37:21;;;;;;;4.17;3.20;;;;;;;15.80;100.00;99355.53;5073742;28;20249;-74
2023/08/06 05:39:47;;;;;;;4.47;3.30;;;;;;;15.81;100.00;99359.81;5073904;28;20211;-75
2023/08/06 05:42:14;;;;;;;4.13;3.73;;;;;;;15.81;100.00;99344.03;5073740;28;20255;-75
2023/08/06 05:44:40;;;;;;;4.00;3.70;;;;;;;15.83;100.00;99343.00;5073632;28;20223;-75
2023/08/06 05:47:07;;;;;;;3.20;3.00;;;;;;;15.85;100.00;99350.81;5073226;28;20203;-76
2023/08/06 05:49:33;;;;;;;3.70;3.40;;;;;;;15.88;100.00;99354.13;5073780;28;20212;-74
2023/08/06 05:51:59;;;;;;;3.77;3.47;;;;;;;15.92;100.00;99359.22;5073900;28;20224;-75
2023/08/06 05:54:27;;;;;;;4.07;3.67;;;;;;;15.95;100.00;99346.69;5073380;28;20756;-75
2023/08/06 05:56:54;;;;;;;3.17;2.97;;;;;;;15.95;100.00;99338.81;5073690;28;20554;-74
2023/08/06 05:59:20;;;;;;;3.30;3.10;;;;;;;16.01;100.00;99332.34;5073929;28;20210;-75
2023/08/06 06:01:47;;;;;;;2.70;2.50;;;;;;;16.08;100.00;99329.25;5073060;28;20224;-74
2023/08/06 06:04:13;;;;;;;3.10;2.90;;;;;;;16.13;100.00;99323.69;5073679;28;20208;-75
2023/08/06 06:06:41;;;;;;;3.63;2.80;;;;;;;16.15;100.00;99307.81;5073472;28;20204;-76
2023/08/06 06:09:08;;;;;;;3.00;2.80;;;;;;;16.16;100.00;99315.63;5073481;28;20205;-75
2023/08/06 06:11:35;;;;;;;2.70;2.50;;;;;;;16.18;100.00;99308.50;5072897;28;20697;-75
2023/08/06 06:14:02;;;;;;;3.03;2.73;;;;;;;16.20;100.00;99311.88;5073036;28;20690;-75
2023/08/06 06:16:29;;;;;;;2.73;2.53;;;;;;;16.18;100.00;99315.56;5073384;28;20215;-75
2023/08/06 06:18:57;;;;;;;2.70;2.50;;;;;;;16.17;100.00;99309.41;5072696;28;20205;-75
2023/08/06 06:21:23;;;;;;;2.17;1.97;;;;;;;15.98;100.00;99330.75;5073160;28;20225;-75
2023/08/06 06:23:51;;;;;;;1.80;1.70;;;;;;;15.95;100.00;99324.81;5073477;28;20236;-75
2023/08/06 06:26:17;;;;;;;1.80;1.70;;;;;;;15.89;100.00;99303.16;5073086;28;20223;-75
2023/08/06 06:28:45;;;;;;;2.87;1.70;;;;;;;15.92;100.00;99289.00;5072739;28;20567;-75
2023/08/06 06:31:12;;;;;;;1.93;1.80;;;;;;;16.09;100.00;99269.53;5072820;28;20240;-75
2023/08/06 06:33:38;;;;;;;1.90;1.80;;;;;;;16.23;100.00;99264.31;5067680;28;20651;-75
2023/08/06 06:36:07;;;;;;;1.70;1.60;;;;;;;16.31;100.00;99263.81;5063366;28;20212;-75
2023/08/06 06:38:33;;;;;;;1.80;1.70;;;;;;;16.48;100.00;99255.72;5062663;28;20254;-75
2023/08/06 06:41:00;;;;;;;2.97;1.73;;;;;;;16.68;100.00;99262.38;5063417;28;20232;-75
2023/08/06 06:43:27;;;;;;;7.37;6.00;;;;;;;16.82;100.00;99261.53;5062994;28;20232;-75
2023/08/06 06:45:57;;;;;;;5.90;5.30;;;;;;;16.90;100.00;99268.94;5061615;28;20207;-75
2023/08/06 06:48:24;;;;;;;2.47;2.33;;;;;;;16.93;100.00;99278.47;5066821;28;20233;-75
2023/08/06 06:50:50;;;;;;;1.80;1.70;;;;;;;16.88;100.00;99299.81;5071600;28;20233;-75
2023/08/06 06:53:17;;;;;;;2.63;2.43;;;;;;;16.86;100.00;99321.00;5061788;28;20204;-75
2023/08/06 06:55:43;;;;;;;2.57;2.37;;;;;;;16.86;100.00;99328.91;5061370;28;20206;-75
2023/08/06 06:58:10;;;;;;;2.30;2.20;;;;;;;16.89;100.00;99330.53;5061677;28;20194;-74
2023/08/06 07:00:37;;;;;;;3.13;2.83;;;;;;;16.91;100.00;99322.50;5060482;28;20230;-75
2023/08/06 07:03:05;;;;;;;3.33;2.93;;;;;;;16.93;100.00;99336.47;5066202;28;20654;-75
2023/08/06 07:05:32;;;;;;;3.13;2.83;;;;;;;16.93;100.00;99345.22;5061277;28;20694;-75
2023/08/06 07:07:58;;;;;;;4.17;2.80;;;;;;;16.98;100.00;99343.13;5062721;28;20201;-75
2023/08/06 07:10:27;;;;;;;2.27;2.17;;;;;;;17.01;100.00;99334.19;5059998;28;20698;-75
2023/08/06 07:12:54;;;;;;;3.30;2.20;;;;;;;17.01;100.00;99345.56;5060669;28;20570;-75
2023/08/06 07:15:20;;;;;;;3.63;2.47;;;;;;;16.99;100.00;99344.81;5060741;28;20691;-75
2023/08/06 07:17:47;;;;;;;3.47;2.73;;;;;;;17.02;100.00;99341.13;5062094;28;20200;-75
2023/08/06 07:20:15;;;;;;;2.70;2.50;;;;;;;17.04;100.00;99331.34;5062190;28;20281;-75
2023/08/06 07:22:41;;;;;;;2.90;2.70;;;;;;;17.09;100.00;99339.81;5060449;28;20221;-74
2023/08/06 07:25:17;;;;;;;2.33;2.03;;;;;;;17.15;100.00;99347.31;5061187;28;20197;-75
2023/08/06 07:27:44;;;;;;;2.40;1.90;;;;;;;17.19;100.00;99356.72;5061071;28;20194;-74
2023/08/06 07:30:13;;;;;;;2.20;2.07;;;;;;;17.20;100.00;99376.88;5061200;28;20197;-75
2023/08/06 07:32:39;;;;;;;2.47;2.27;;;;;;;17.20;100.00;99355.78;5062623;28;20191;-75
2023/08/06 07:35:08;;;;;;;4.73;2.70;;;;;;;17.20;100.00;99307.47;5060342;28;20202;-75
2023/08/06 07:37:35;;;;;;;2.30;2.00;;;;;;;17.13;100.00;99280.66;5061543;28;20252;-74
2023/08/06 07:40:02;;;;;;;2.00;1.90;;;;;;;16.93;100.00;99286.38;5060927;28;20206;-75
2023/08/06 07:42:28;;;;;;;2.67;2.50;;;;;;;16.95;100.00;99277.41;5060952;28;20221;-75
2023/08/06 07:44:56;;;;;;;2.13;2.03;;;;;;;16.89;100.00;99262.00;5062081;28;20208;-74
2023/08/06 07:47:23;;;;;;;2.20;2.10;;;;;;;16.92;100.00;99258.31;5060753;28;20296;-75
2023/08/06 07:49:50;;;;;;;2.60;2.50;;;;;;;16.92;100.00;99248.59;5059783;28;20210;-75
2023/08/06 07:52:16;;;;;;;2.90;2.70;;;;;;;16.94;100.00;99243.25;5062390;28;20217;-75
2023/08/06 07:54:44;;;;;;;2.40;2.20;;;;;;;16.93;100.00;99239.75;5061142;28;20210;-75
2023/08/06 07:57:11;;;;;;;3.33;2.80;;;;;;;16.99;100.00;99220.91;5060089;28;20201;-75
2023/08/06 07:59:37;;;;;;;2.43;2.23;;;;;;;17.12;100.00;99223.56;5063103;28;20197;-75
2023/08/06 08:02:05;;;;;;;2.73;2.53;;;;;;;17.21;100.00;99235.34;5061358;28;20221;-75
2023/08/06 08:04:31;;;;;;;6.63;2.40;;;;;;;17.26;100.00;99251.69;5062284;28;20217;-75
2023/08/06 08:06:58;;;;;;;4.73;2.30;;;;;;;17.26;100.00;99294.75;5060028;28;20203;-75
2023/08/06 08:09:24;;;;;;;5.50;2.73;;;;;;;17.14;100.00;99345.63;5061341;28;20204;-75
2023/08/06 08:11:52;;;;;;;2.70;2.47;;;;;;;17.15;100.00;99351.75;5061815;28;20719;-75
2023/08/06 08:14:19;;;;;;;2.80;2.37;;;;;;;17.25;100.00;99355.50;5060171;28;20547;-75
2023/08/06 08:16:45;;;;;;;2.67;2.30;;;;;;;17.27;100.00;99361.53;5060749;28;20654;-75
2023/08/06 08:19:12;;;;;;;2.50;2.30;;;;;;;17.38;100.00;99364.34;5062308;28;20292;-76
2023/08/06 08:21:38;;;;;;;2.40;2.20;;;;;;;17.44;100.00;99385.03;5067181;28;20217;-76
2023/08/06 08:24:05;;;;;;;2.60;2.40;;;;;;;17.52;100.00;99394.22;5071217;28;20236;-76
2023/08/06 08:26:32;;;;;;;2.37;2.27;;;;;;;17.56;100.00;99406.28;5070349;28;20230;-75
2023/08/06 08:29:00;;;;;;;2.40;2.20;;;;;;;17.72;100.00;99366.53;5071423;28;20210;-75
2023/08/06 08:31:26;;;;;;;2.50;2.40;;;;;;;17.77;100.00;99396.97;5071536;28;20225;-75
2023/08/06 08:33:53;;;;;;;2.07;1.87;;;;;;;17.79;100.00;99429.38;5071124;28;20676;-75
2023/08/06 08:36:19;;;;;;;2.20;2.10;;;;;;;17.82;100.00;99439.75;5071114;28;20205;-75
2023/08/06 08:38:46;;;;;;;2.37;2.17;;;;;;;17.82;100.00;99433.66;5071228;28;20213;-75
2023/08/06 08:41:12;;;;;;;2.07;1.97;;;;;;;17.47;100.00;99460.50;5071302;28;20238;-75
2023/08/06 08:43:41;;;;;;;2.10;2.00;;;;;;;17.25;100.00;99439.91;5071271;28;20283;-75
2023/08/06 08:46:10;;;;;;;2.83;2.73;;;;;;;17.26;100.00;99394.97;5071183;28;20209;-75
2023/08/06 08:48:37;;;;;;;2.57;2.43;;;;;;;17.32;100.00;99364.69;5071013;28;20697;-75
2023/08/06 08:51:05;;;;;;;2.50;2.30;;;;;;;17.45;100.00;99362.97;5070898;28;20750;-75
2023/08/06 08:53:32;;;;;;;2.70;2.50;;;;;;;17.60;100.00;99363.78;5070984;28;20204;-75
2023/08/06 08:55:59;;;;;;;2.40;2.30;;;;;;;17.75;100.00;99361.06;5071081;28;20202;-75
2023/08/06 08:58:26;;;;;;;2.90;2.70;;;;;;;17.69;100.00;99383.44;5070951;28;20210;-75
2023/08/06 09:00:53;;;;;;;2.30;2.17;;;;;;;17.79;100.00;99373.97;5073242;28;20225;-75
2023/08/06 09:03:21;;;;;;;3.07;2.80;;;;;;;17.97;100.00;99355.25;5074625;28;20237;-75
2023/08/06 09:05:52;;;;;;;2.30;2.10;;;;;;;17.91;100.00;99416.38;5074934;28;20215;-75
2023/08/06 09:08:25;;;;;;;2.30;2.20;;;;;;;18.00;100.00;99419.25;5074330;28;20186;-75
2023/08/06 09:10:53;;;;;;;2.40;2.30;;;;;;;18.14;100.00;99436.84;5074599;28;20239;-75
2023/08/06 09:13:20;;;;;;;2.60;2.40;;;;;;;17.96;100.00;99461.81;5074485;28;20672;-75
2023/08/06 09:15:46;;;;;;;2.53;2.33;;;;;;;17.94;100.00;99461.03;5074936;28;20212;-75
2023/08/06 09:18:13;;;;;;;2.80;2.60;;;;;;;18.10;100.00;99443.28;5074082;28;20212;-75
2023/08/06 09:20:41;;;;;;;1.83;1.73;;;;;;;18.24;98.90;99474.91;5074448;28;20224;-75
2023/08/06 09:23:08;;;;;;;2.17;2.07;;;;;;;18.30;96.93;99507.16;5074230;28;20226;-74
2023/08/06 09:25:39;;;;;;;2.07;1.93;;;;;;;18.26;96.32;99523.19;5073877;28;20668;-75
2023/08/06 09:28:05;;;;;;;2.03;1.93;;;;;;;18.30;96.53;99528.28;5074037;28;20206;-75
2023/08/06 09:30:33;;;;;;;3.40;2.00;;;;;;;18.31;96.30;99544.00;5073873;28;20230;-75
2023/08/06 09:33:01;;;;;;;2.37;2.10;;;;;;;18.38;96.61;99524.19;5074023;28;20207;-75
2023/08/06 09:35:30;;;;;;;1.90;1.80;;;;;;;18.33;93.39;99578.25;5073851;28;20696;-76
2023/08/06 09:38:07;;;;;;;1.83;1.70;;;;;;;18.31;94.18;99564.31;5073936;28;20211;-75
2023/08/06 09:40:34;;;;;;;1.90;1.80;;;;;;;18.25;92.39;99586.69;5073756;28;20708;-75
2023/08/06 09:43:01;;;;;;;2.00;1.90;;;;;;;18.36;93.41;99581.56;5073865;28;20226;-75
2023/08/06 09:45:31;;;;;;;2.13;2.03;;;;;;;18.55;93.74;99581.22;5074058;28;20234;-75
2023/08/06 09:47:58;;;;;;;1.70;1.60;;;;;;;18.63;91.90;99600.06;5073468;28;20235;-75
2023/08/06 09:50:30;;;;;;;1.90;1.80;;;;;;;18.80;92.46;99584.91;5073541;28;20237;-75
2023/08/06 09:52:57;;;;;;;2.00;1.90;;;;;;;18.92;92.60;99573.50;5073730;28;20237;-75
2023/08/06 09:55:26;;;;;;;1.97;1.87;;;;;;;18.92;91.57;99599.94;5073917;28;20210;-75
2023/08/06 09:57:53;;;;;;;2.40;2.00;;;;;;;18.91;90.05;99632.63;5073507;28;20209;-75
2023/08/06 10:00:20;;;;;;;2.60;2.40;;;;;;;19.02;98.30;99489.91;5073459;28;20227;-75
2023/08/06 10:02:48;;;;;;;2.30;2.00;;;;;;;19.13;100.00;99432.78;5073351;28;20207;-75
2023/08/06 10:05:16;;;;;;;2.20;2.00;;;;;;;19.17;97.13;99439.56;5073536;28;20234;-75
2023/08/06 10:07:44;;;;;;;2.93;2.50;;;;;;;19.23;94.77;99487.59;5073613;28;20216;-75
2023/08/06 10:10:11;;;;;;;2.07;1.93;;;;;;;19.38;94.38;99498.03;5073555;28;20250;-75
2023/08/06 10:12:44;;;;;;;2.13;1.70;;;;;;;19.37;90.30;99579.25;5072449;28;20675;-75
2023/08/06 10:15:13;;;;;;;1.90;1.80;;;;;;;19.45;90.45;99587.47;5072948;28;20212;-75
2023/08/06 10:17:41;;;;;;;1.80;1.70;;;;;;;19.47;87.62;99626.25;5073287;28;20226;-75
2023/08/06 10:20:09;;;;;;;1.80;1.70;;;;;;;19.53;86.97;99653.13;5073030;28;20207;-75
2023/08/06 10:22:36;;;;;;;1.53;1.43;;;;;;;19.40;85.79;99642.53;5072838;28;20432;-75
2023/08/06 10:25:05;;;;;;;1.40;1.40;;;;;;;19.41;83.25;99715.69;5072834;28;20257;-75
2023/08/06 10:27:34;;;;;;;1.80;1.70;;;;;;;19.45;85.05;99698.66;5072718;28;20231;-75
2023/08/06 10:30:24;;;;;;;2.20;1.83;;;;;;;19.66;83.51;99727.25;5072870;28;20204;-75
2023/08/06 10:32:52;;;;;;;1.90;1.80;;;;;;;19.77;85.37;99702.75;5072899;28;20208;-75
2023/08/06 10:35:32;;;;;;;2.10;1.90;;;;;;;19.86;84.61;99698.59;5072906;28;20210;-75
2023/08/06 10:38:00;;;;;;;2.87;1.53;;;;;;;19.89;82.99;99717.78;5072576;28;20215;-75
2023/08/06 10:40:31;;;;;;;1.50;1.40;;;;;;;20.07;86.05;99670.59;5072662;28;20255;-75
2023/08/06 10:43:00;;;;;;;2.90;1.53;;;;;;;20.17;84.80;99661.03;5072956;28;20200;-75
2023/08/06 10:45:28;;;;;;;1.67;1.40;;;;;;;20.24;83.75;99672.06;5072800;28;20305;-74
2023/08/06 10:47:56;;;;;;;1.20;1.13;;;;;;;20.22;77.63;99770.22;5072800;28;20211;-75
2023/08/06 10:50:22;;;;;;;1.73;1.60;;;;;;;20.15;73.31;99925.28;5072385;28;20591;-75
2023/08/06 10:52:49;;;;;;;1.70;1.53;;;;;;;20.23;82.46;99797.56;5072783;28;20213;-75
2023/08/06 10:55:23;;;;;;;1.53;1.37;;;;;;;20.36;85.53;99659.75;5072556;28;20204;-75
2023/08/06 10:57:50;;;;;;;2.00;1.60;;;;;;;20.49;85.64;99634.00;5072348;28;20187;-75
2023/08/06 11:00:17;;;;;;;1.67;1.50;;;;;;;20.58;86.87;99601.53;5072332;28;20207;-75
2023/08/06 11:02:45;;;;;;;1.93;1.83;;;;;;;20.75;87.33;99557.00;5072296;28;20690;-75
2023/08/06 11:05:12;;;;;;;1.93;1.50;;;;;;;20.87;86.50;99571.16;5072204;28;20238;-75
2023/08/06 11:07:39;;;;;;;1.80;1.67;;;;;;;20.94;82.52;99639.56;5072534;28;20219;-75
2023/08/06 11:10:07;;;;;;;1.63;1.53;;;;;;;20.95;80.63;99677.53;5072471;28;20273;-75
2023/08/06 11:12:34;;;;;;;1.60;1.50;;;;;;;20.91;75.69;99800.78;5072224;28;20207;-76
2023/08/06 11:15:01;;;;;;;1.77;1.67;;;;;;;20.93;75.33;99831.56;5072507;28;20209;-76
2023/08/06 11:17:29;;;;;;;1.70;1.30;;;;;;;20.96;75.54;99843.75;5072140;28;20215;-76
2023/08/06 11:19:59;;;;;;;1.60;1.50;;;;;;;21.07;77.49;99813.78;5071923;28;20216;-76
2023/08/06 11:22:26;;;;;;;1.80;1.13;;;;;;;21.11;71.57;99895.72;5072096;28;20670;-76
2023/08/06 11:24:54;;;;;;;1.87;1.20;;;;;;;21.09;69.10;99993.19;5072025;28;20227;-76
2023/08/06 11:27:20;;;;;;;1.80;1.20;;;;;;;21.07;72.63;99950.00;5071785;28;20573;-75